createdAt,value
2022-10-31T00:01:34.474Z,98.91
2022-10-31T00:04:03.112Z,99.15
2022-10-31T00:06:31.285Z,98.96
2022-10-31T00:09:01.011Z,97.33
2022-10-31T00:11:29.506Z,94.95
2022-10-31T00:13:58.817Z,94.54
2022-10-31T00:16:27.087Z,95.71
2022-10-31T00:18:58.507Z,97.52
2022-10-31T00:21:26.464Z,95.36
2022-10-31T00:23:54.462Z,94.19
2022-10-31T00:26:22.653Z,95.77
2022-10-31T00:28:50.376Z,94.96
2022-10-31T00:31:18.360Z,98.34
2022-10-31T00:33:46.189Z,98.58
2022-10-31T00:36:19.226Z,98.71
2022-10-31T00:38:48.603Z,99.68
2022-10-31T00:41:17.992Z,100.00
2022-10-31T00:43:45.754Z,100.00
2022-10-31T00:46:14.302Z,100.00
2022-10-31T00:48:42.996Z,98.00
2022-10-31T00:51:10.503Z,98.67
2022-10-31T00:53:38.504Z,99.79
2022-10-31T00:56:06.999Z,97.51
2022-10-31T00:58:35.015Z,99.80
2022-10-31T01:01:03.823Z,99.38
2022-10-31T01:03:33.308Z,98.31
2022-10-31T01:06:05.277Z,100.00
2022-10-31T01:08:34.858Z,97.01
2022-10-31T01:11:14.901Z,99.28
2022-10-31T01:13:44.185Z,96.77
2022-10-31T01:16:14.804Z,97.49
2022-10-31T01:18:42.924Z,98.44
2022-10-31T01:21:13.690Z,97.52
2022-10-31T01:23:41.634Z,98.79
2022-10-31T01:26:12.727Z,99.26
2022-10-31T01:28:52.067Z,95.21
2022-10-31T01:31:23.183Z,93.46
2022-10-31T01:33:50.856Z,94.66
2022-10-31T01:36:29.562Z,95.33
2022-10-31T01:38:59.590Z,96.52
2022-10-31T01:41:31.972Z,96.46
2022-10-31T01:44:17.097Z,95.63
2022-10-31T01:46:53.763Z,95.05
2022-10-31T01:49:27.035Z,95.58
2022-10-31T01:52:02.385Z,93.32
2022-10-31T01:54:35.030Z,92.52
2022-10-31T01:57:03.171Z,94.74
2022-10-31T01:59:34.081Z,93.72
2022-10-31T02:02:02.667Z,93.76
2022-10-31T02:04:30.896Z,95.33
2022-10-31T02:07:04.122Z,94.44
2022-10-31T02:09:35.747Z,95.13
2022-10-31T02:12:03.714Z,95.36
2022-10-31T02:14:32.980Z,93.74
2022-10-31T02:17:00.979Z,95.38
2022-10-31T02:19:47.974Z,96.46
2022-10-31T02:22:30.777Z,96.12
2022-10-31T02:25:05.029Z,91.35
2022-10-31T02:27:53.193Z,91.87
2022-10-31T02:30:25.976Z,93.47
2022-10-31T02:33:00.122Z,93.33
2022-10-31T02:35:38.903Z,94.95
2022-10-31T02:38:20.198Z,96.94
2022-10-31T02:40:51.107Z,99.04
2022-10-31T02:43:42.065Z,100.00
2022-10-31T02:46:26.369Z,100.00
2022-10-31T02:48:56.150Z,100.00
2022-10-31T02:51:23.709Z,100.00
2022-10-31T02:53:51.680Z,100.00
2022-10-31T02:56:20.559Z,100.00
2022-10-31T02:58:54.966Z,100.00
2022-10-31T03:01:55.297Z,98.26
2022-10-31T03:04:38.560Z,100.00
2022-10-31T03:07:23.912Z,97.02
2022-10-31T03:10:42.909Z,98.29
2022-10-31T03:13:31.134Z,97.14
2022-10-31T03:16:15.849Z,93.16
2022-10-31T03:18:51.968Z,91.05
2022-10-31T03:21:24.303Z,91.98
2022-10-31T03:23:54.320Z,94.87
2022-10-31T03:26:22.879Z,95.93
2022-10-31T03:28:59.177Z,92.86
2022-10-31T03:31:31.201Z,92.46
2022-10-31T03:33:59.900Z,93.66
2022-10-31T03:36:35.920Z,91.19
2022-10-31T03:39:06.194Z,88.42
2022-10-31T03:41:39.557Z,88.18
2022-10-31T03:44:18.308Z,89.52
2022-10-31T03:46:48.097Z,87.02
2022-10-31T03:49:16.058Z,86.75
2022-10-31T03:51:50.098Z,87.40
2022-10-31T03:54:30.220Z,87.37
2022-10-31T03:57:02.320Z,87.59
2022-10-31T03:59:38.896Z,87.20
2022-10-31T04:02:11.236Z,87.05
2022-10-31T04:04:39.618Z,85.43
2022-10-31T04:07:08.357Z,86.04
2022-10-31T04:09:38.231Z,85.17
2022-10-31T04:12:26.148Z,86.07
2022-10-31T04:14:56.783Z,85.71
2022-10-31T04:17:29.094Z,85.91
2022-10-31T04:19:56.932Z,84.93
2022-10-31T04:22:24.659Z,84.26
2022-10-31T04:24:53.594Z,84.03
2022-10-31T04:27:21.785Z,84.42
2022-10-31T04:29:50.939Z,86.25
2022-10-31T04:32:19.104Z,84.16
2022-10-31T04:34:47.429Z,83.41
2022-10-31T04:37:15.462Z,82.10
2022-10-31T04:39:43.355Z,83.10
2022-10-31T04:42:13.392Z,83.62
2022-10-31T04:44:41.018Z,82.42
2022-10-31T04:47:09.324Z,81.98
2022-10-31T04:49:37.665Z,82.07
2022-10-31T04:52:06.476Z,82.16
2022-10-31T04:54:34.549Z,80.58
2022-10-31T04:57:04.333Z,79.90
2022-10-31T04:59:32.319Z,81.63
2022-10-31T05:02:00.990Z,79.93
2022-10-31T05:04:29.534Z,77.44
2022-10-31T05:06:57.551Z,76.45
2022-10-31T05:09:25.977Z,76.53
2022-10-31T05:11:54.106Z,75.92
2022-10-31T05:14:23.134Z,76.63
2022-10-31T05:16:53.501Z,81.27
2022-10-31T05:19:23.876Z,80.95
2022-10-31T05:21:54.947Z,82.29
2022-10-31T05:24:25.085Z,87.32
2022-10-31T05:26:53.663Z,87.05
2022-10-31T05:29:21.386Z,83.03
2022-10-31T05:31:49.262Z,83.65
2022-10-31T05:34:19.845Z,86.94
2022-10-31T05:36:49.058Z,83.57
2022-10-31T05:39:16.703Z,86.23
2022-10-31T05:41:44.962Z,86.73
2022-10-31T05:44:14.141Z,84.42
2022-10-31T05:46:47.551Z,82.04
2022-10-31T05:49:18.538Z,82.73
2022-10-31T05:51:48.150Z,83.10
2022-10-31T05:54:16.441Z,83.51
2022-10-31T05:56:44.995Z,83.58
2022-10-31T05:59:13.811Z,82.92
2022-10-31T06:01:42.067Z,84.68
2022-10-31T06:04:14.201Z,84.90
2022-10-31T06:06:43.517Z,85.10
2022-10-31T06:09:11.667Z,84.31
2022-10-31T06:11:39.995Z,83.43
2022-10-31T06:14:14.623Z,84.68
2022-10-31T06:16:43.587Z,84.52
2022-10-31T06:19:13.544Z,82.12
2022-10-31T06:21:41.832Z,83.99
2022-10-31T06:24:10.632Z,84.89
2022-10-31T06:26:40.003Z,84.18
2022-10-31T06:29:08.713Z,83.72
2022-10-31T06:31:37.904Z,86.64
2022-10-31T06:34:05.512Z,87.72
2022-10-31T06:36:33.751Z,86.88
2022-10-31T06:39:03.075Z,92.01
2022-10-31T06:41:31.652Z,88.03
2022-10-31T06:44:03.491Z,86.76
2022-10-31T06:46:35.695Z,85.96
2022-10-31T06:49:05.729Z,85.50
2022-10-31T06:51:33.717Z,84.32
2022-10-31T06:54:01.814Z,84.59
2022-10-31T06:56:29.205Z,82.60
2022-10-31T06:58:57.137Z,83.22
2022-10-31T07:01:26.930Z,83.41
2022-10-31T07:03:55.848Z,84.26
2022-10-31T07:06:23.917Z,87.94
2022-10-31T07:08:51.957Z,88.95
2022-10-31T07:11:19.890Z,93.27
2022-10-31T07:13:47.640Z,91.27
2022-10-31T07:16:17.161Z,90.35
2022-10-31T07:18:44.788Z,92.91
2022-10-31T07:21:13.126Z,93.88
2022-10-31T07:23:41.075Z,91.73
2022-10-31T07:26:12.822Z,87.12
2022-10-31T07:28:41.424Z,88.39
2022-10-31T07:31:09.631Z,89.23
2022-10-31T07:33:37.944Z,89.06
2022-10-31T07:36:08.466Z,91.69
2022-10-31T07:38:36.358Z,90.77
2022-10-31T07:41:04.117Z,91.60
2022-10-31T07:43:32.600Z,93.61
2022-10-31T07:46:01.519Z,92.35
2022-10-31T07:48:31.765Z,93.17
2022-10-31T07:51:08.005Z,96.02
2022-10-31T07:53:37.758Z,96.78
2022-10-31T07:56:06.653Z,98.67
2022-10-31T07:58:35.037Z,98.38
2022-10-31T08:01:03.206Z,97.64
2022-10-31T08:03:31.467Z,96.25
2022-10-31T08:06:02.103Z,92.45
2022-10-31T08:08:32.352Z,90.22
2022-10-31T08:11:04.646Z,86.73
2022-10-31T08:13:32.969Z,86.53
2022-10-31T08:16:05.083Z,90.18
2022-10-31T08:18:34.070Z,91.03
2022-10-31T08:21:02.347Z,88.63
2022-10-31T08:23:30.567Z,91.34
2022-10-31T08:25:58.778Z,94.19
2022-10-31T08:28:27.167Z,94.42
2022-10-31T08:30:55.392Z,91.62
2022-10-31T08:33:27.936Z,91.87
2022-10-31T08:35:59.530Z,95.17
2022-10-31T08:38:30.659Z,93.41
2022-10-31T08:40:58.606Z,96.66
2022-10-31T08:43:27.728Z,98.85
2022-10-31T08:45:56.061Z,94.22
2022-10-31T08:48:24.735Z,92.34
2022-10-31T08:50:52.979Z,93.60
2022-10-31T08:53:21.008Z,90.46
2022-10-31T08:55:49.715Z,85.63
2022-10-31T08:58:21.111Z,85.93
2022-10-31T09:00:52.859Z,85.18
2022-10-31T09:03:29.552Z,85.65
2022-10-31T09:06:00.421Z,86.51
2022-10-31T09:08:30.356Z,87.74
2022-10-31T09:10:58.840Z,87.44
2022-10-31T09:13:28.400Z,86.36
2022-10-31T09:15:59.793Z,84.03
2022-10-31T09:18:30.455Z,85.00
2022-10-31T09:21:01.245Z,84.45
2022-10-31T09:23:31.052Z,84.90
2022-10-31T09:26:01.292Z,86.65
2022-10-31T09:28:30.235Z,87.43
2022-10-31T09:31:00.431Z,89.44
2022-10-31T09:33:29.236Z,85.20
2022-10-31T09:36:00.291Z,83.14
2022-10-31T09:38:28.954Z,87.28
2022-10-31T09:41:04.665Z,89.00
2022-10-31T09:43:48.626Z,86.88
2022-10-31T09:46:19.893Z,91.54
2022-10-31T09:49:02.997Z,87.80
2022-10-31T09:51:35.036Z,91.81
2022-10-31T09:54:12.289Z,92.05
2022-10-31T09:56:40.278Z,92.45
2022-10-31T09:59:15.824Z,97.47
2022-10-31T10:01:54.616Z,92.93
2022-10-31T10:04:48.511Z,88.54
2022-10-31T10:07:32.378Z,86.21
2022-10-31T10:10:15.039Z,86.14
2022-10-31T10:12:54.650Z,88.95
2022-10-31T10:15:44.458Z,89.91
2022-10-31T10:18:14.438Z,86.91
2022-10-31T10:20:59.997Z,83.58
2022-10-31T10:23:55.738Z,83.31
2022-10-31T10:34:00.294Z,84.01
2022-10-31T10:36:31.848Z,85.97
2022-10-31T10:39:02.143Z,83.29
2022-10-31T10:41:34.574Z,84.72
2022-10-31T10:44:02.615Z,83.50
2022-10-31T10:47:03.459Z,83.60
2022-10-31T10:49:50.963Z,82.09
2022-10-31T10:52:50.874Z,82.03
2022-10-31T10:55:42.062Z,82.88
2022-10-31T10:58:10.899Z,81.85
2022-10-31T11:00:47.657Z,80.44
2022-10-31T11:03:17.520Z,80.95
2022-10-31T11:05:59.627Z,79.52
2022-10-31T11:08:29.019Z,79.47
2022-10-31T11:11:03.830Z,78.68
2022-10-31T11:13:33.261Z,78.59
2022-10-31T11:16:03.642Z,79.28
2022-10-31T11:18:33.163Z,80.02
2022-10-31T11:21:05.307Z,79.97
2022-10-31T11:23:34.005Z,79.60
2022-10-31T11:26:05.187Z,80.81
2022-10-31T11:28:35.761Z,79.96
2022-10-31T11:31:09.749Z,79.78
2022-10-31T11:34:04.556Z,79.01
2022-10-31T11:36:36.851Z,80.46
2022-10-31T11:39:07.567Z,81.43
2022-10-31T11:41:39.452Z,81.54
2022-10-31T11:44:18.359Z,81.81
2022-10-31T11:46:52.403Z,82.07
2022-10-31T11:49:41.355Z,83.89
2022-10-31T11:52:16.515Z,81.90
2022-10-31T11:54:47.768Z,82.28
2022-10-31T11:57:24.547Z,86.63
2022-10-31T11:59:58.417Z,81.96
2022-10-31T12:02:27.372Z,80.75
2022-10-31T12:05:03.933Z,79.75
2022-10-31T12:07:31.436Z,79.23
2022-10-31T12:09:59.424Z,78.78
2022-10-31T12:12:55.110Z,83.24
2022-10-31T12:15:38.465Z,86.54
2022-10-31T12:18:15.308Z,81.49
2022-10-31T12:21:00.876Z,81.88
2022-10-31T12:23:44.337Z,86.85
2022-10-31T12:26:47.881Z,87.42
2022-10-31T12:29:15.480Z,86.46
2022-10-31T12:32:21.202Z,89.18
2022-10-31T12:35:11.544Z,85.68
2022-10-31T12:37:49.999Z,85.92
2022-10-31T12:40:36.393Z,84.32
2022-10-31T12:43:36.069Z,82.51
2022-10-31T12:46:06.322Z,81.48
2022-10-31T12:48:58.485Z,79.73
2022-10-31T12:52:12.004Z,79.26
2022-10-31T12:55:34.679Z,80.57
2022-10-31T12:58:34.532Z,79.89
2022-10-31T13:01:20.597Z,79.74
2022-10-31T13:03:52.124Z,82.08
2022-10-31T13:06:24.555Z,79.09
2022-10-31T13:08:57.663Z,79.97
2022-10-31T13:11:30.012Z,79.47
2022-10-31T13:14:10.627Z,79.41
2022-10-31T13:16:41.382Z,79.31
2022-10-31T13:19:14.759Z,79.17
2022-10-31T13:22:01.101Z,79.15
2022-10-31T13:24:36.283Z,78.20
2022-10-31T13:27:16.245Z,78.65
2022-10-31T13:30:00.141Z,79.90
2022-10-31T13:32:31.692Z,80.60
2022-10-31T13:35:00.236Z,82.09
2022-10-31T13:37:31.505Z,79.83
2022-10-31T13:40:23.588Z,80.05
2022-10-31T13:43:08.175Z,79.33
2022-10-31T13:45:35.800Z,79.17
2022-10-31T13:48:16.132Z,79.55
2022-10-31T13:50:56.323Z,79.73
2022-10-31T13:53:46.568Z,80.12
2022-10-31T13:56:17.866Z,80.89
2022-10-31T13:59:10.127Z,81.18
2022-10-31T14:01:53.631Z,80.28
2022-10-31T14:04:26.030Z,80.30
2022-10-31T14:07:08.037Z,78.60
2022-10-31T14:09:57.733Z,79.02
2022-10-31T14:12:56.249Z,78.57
2022-10-31T14:15:28.012Z,78.54
2022-10-31T14:17:58.393Z,78.82
2022-10-31T14:20:42.189Z,78.26
2022-10-31T14:23:35.161Z,78.99
2022-10-31T14:26:29.715Z,79.50
2022-10-31T14:29:00.965Z,82.06
2022-10-31T14:31:40.825Z,82.73
2022-10-31T14:34:23.944Z,81.82
2022-10-31T14:36:58.144Z,80.00
2022-10-31T14:39:34.286Z,82.81
2022-10-31T14:42:23.969Z,81.12
2022-10-31T14:45:06.675Z,81.31
2022-10-31T14:47:40.231Z,79.90
2022-10-31T14:50:32.945Z,84.55
2022-10-31T14:53:03.602Z,81.08
2022-10-31T14:55:31.803Z,81.96
2022-10-31T14:58:05.532Z,82.00
2022-10-31T15:00:34.348Z,86.45
2022-10-31T15:03:17.236Z,84.50
2022-10-31T15:05:52.508Z,82.83
2022-10-31T15:08:47.876Z,83.40
2022-10-31T15:11:25.850Z,83.37
2022-10-31T15:13:55.755Z,82.08
2022-10-31T15:16:25.821Z,81.53
2022-10-31T15:18:55.835Z,81.09
2022-10-31T15:21:25.640Z,84.21
2022-10-31T15:23:55.228Z,84.38
2022-10-31T15:26:25.513Z,83.19
2022-10-31T15:29:06.092Z,82.00
2022-10-31T15:31:34.652Z,81.93
2022-10-31T15:36:53.372Z,81.47
2022-10-31T15:39:21.631Z,81.63
2022-10-31T15:41:55.296Z,82.42
2022-10-31T15:44:26.738Z,81.78
2022-10-31T15:47:00.720Z,79.97
2022-10-31T15:49:36.666Z,81.22
2022-10-31T15:52:48.771Z,81.42
2022-10-31T15:55:21.727Z,83.78
2022-10-31T15:57:57.789Z,82.62
2022-10-31T16:00:37.206Z,84.48
2022-10-31T16:03:20.875Z,84.55
2022-10-31T16:05:50.151Z,83.76
2022-10-31T16:08:33.207Z,82.41
2022-10-31T16:11:17.941Z,81.67
2022-10-31T16:13:59.349Z,81.85
2022-10-31T16:16:36.264Z,82.72
2022-10-31T16:19:05.982Z,83.19
2022-10-31T16:21:38.857Z,83.54
2022-10-31T16:24:17.309Z,82.77
2022-10-31T16:26:53.690Z,83.17
2022-10-31T16:29:39.509Z,84.11
2022-10-31T16:32:28.861Z,82.83
2022-10-31T16:35:26.327Z,84.65
2022-10-31T16:37:54.641Z,83.86
2022-10-31T16:40:23.325Z,84.02
2022-10-31T16:42:51.562Z,85.84
2022-10-31T16:45:24.949Z,84.45
2022-10-31T16:47:53.082Z,82.92
2022-10-31T16:50:26.155Z,84.05
2022-10-31T16:53:12.776Z,83.18
2022-10-31T16:55:47.286Z,84.13
2022-10-31T16:58:18.971Z,83.35
2022-10-31T17:00:47.006Z,82.80
2022-10-31T17:03:15.479Z,82.68
2022-10-31T17:05:42.961Z,82.44
2022-10-31T17:08:10.297Z,81.14
2022-10-31T17:10:39.277Z,82.73
2022-10-31T17:13:11.885Z,82.81
2022-10-31T17:15:44.746Z,82.06
2022-10-31T17:18:16.754Z,82.52
2022-10-31T17:20:44.881Z,81.62
2022-10-31T17:23:15.371Z,80.04
2022-10-31T17:25:44.036Z,81.99
2022-10-31T17:28:14.810Z,82.87
2022-10-31T17:30:43.721Z,82.29
2022-10-31T17:33:13.625Z,83.92
2022-10-31T17:35:42.349Z,82.87
2022-10-31T17:38:09.805Z,82.34
2022-10-31T17:40:39.375Z,82.54
2022-10-31T17:43:10.145Z,83.23
2022-10-31T17:45:42.211Z,81.12
2022-10-31T17:48:12.661Z,81.37
2022-10-31T17:50:41.730Z,81.89
2022-10-31T17:53:10.148Z,83.21
2022-10-31T17:55:38.723Z,84.60
2022-10-31T17:58:07.318Z,84.18
2022-10-31T18:00:35.982Z,83.84
2022-10-31T18:03:05.393Z,85.13
2022-10-31T18:05:34.129Z,84.15
2022-10-31T18:08:04.071Z,83.26
2022-10-31T18:10:33.287Z,83.92
2022-10-31T18:13:01.655Z,83.52
2022-10-31T18:15:29.926Z,83.19
2022-10-31T18:17:58.830Z,82.87
2022-10-31T18:20:26.500Z,82.37
2022-10-31T18:22:57.765Z,82.57
2022-10-31T18:25:26.423Z,83.51
2022-10-31T18:27:54.581Z,81.88
2022-10-31T18:30:22.380Z,82.50
2022-10-31T18:32:52.313Z,83.74
2022-10-31T18:35:20.699Z,83.49
2022-10-31T18:37:48.360Z,83.12
2022-10-31T18:40:17.071Z,84.34
2022-10-31T18:42:44.656Z,84.20
2022-10-31T18:45:31.365Z,84.07
2022-10-31T18:48:01.664Z,84.46
2022-10-31T18:50:29.859Z,83.88
2022-10-31T18:52:58.714Z,84.13
2022-10-31T18:55:27.954Z,82.01
2022-10-31T18:57:56.696Z,82.85
2022-10-31T19:00:24.582Z,84.37
2022-10-31T19:02:56.673Z,82.67
2022-10-31T19:05:24.725Z,83.81
2022-10-31T19:07:54.631Z,84.66
2022-10-31T19:10:23.056Z,83.81
2022-10-31T19:12:51.641Z,84.47
2022-10-31T19:15:20.143Z,86.89
2022-10-31T19:17:54.997Z,89.29
2022-10-31T19:20:22.838Z,88.31
2022-10-31T19:22:52.467Z,87.64
2022-10-31T19:25:21.624Z,86.14
2022-10-31T19:27:50.268Z,87.68
2022-10-31T19:30:19.598Z,87.69
2022-10-31T19:32:48.626Z,86.78
2022-10-31T19:35:17.829Z,86.07
2022-10-31T19:37:48.346Z,85.04
2022-10-31T19:40:16.024Z,86.90
2022-10-31T19:42:44.237Z,87.31
2022-10-31T19:45:13.207Z,87.43
2022-10-31T19:47:41.483Z,85.97
2022-10-31T19:50:10.517Z,84.32
2022-10-31T19:52:39.654Z,85.89
2022-10-31T19:55:08.053Z,87.78
2022-10-31T20:00:25.855Z,83.12
2022-10-31T20:02:53.574Z,84.14
2022-10-31T20:05:22.989Z,86.10
2022-10-31T20:07:54.666Z,86.89
2022-10-31T20:10:23.514Z,85.76
2022-10-31T20:12:51.791Z,84.81
2022-10-31T20:15:20.244Z,83.71
2022-10-31T20:17:49.138Z,85.62
2022-10-31T20:20:17.394Z,85.96
2022-10-31T20:22:48.075Z,85.79
2022-10-31T20:25:17.244Z,84.11
2022-10-31T20:27:45.898Z,84.98
2022-10-31T20:30:14.738Z,84.07
2022-10-31T20:32:46.342Z,86.21
2022-10-31T20:35:17.876Z,85.05
2022-10-31T20:37:45.881Z,87.06
2022-10-31T20:40:15.058Z,84.87
2022-10-31T20:42:46.627Z,86.36
2022-10-31T20:45:14.899Z,86.05
2022-10-31T20:47:43.209Z,83.83
2022-10-31T20:50:10.634Z,85.13
2022-10-31T20:52:40.560Z,86.12
2022-10-31T20:55:09.767Z,85.57
2022-10-31T20:57:38.273Z,86.09
2022-10-31T21:00:07.879Z,85.35
2022-10-31T21:02:35.563Z,87.16
2022-10-31T21:05:08.576Z,89.61
2022-10-31T21:07:35.977Z,88.82
2022-10-31T21:10:05.140Z,88.48
2022-10-31T21:12:33.551Z,89.82
2022-10-31T21:15:01.144Z,90.07
2022-10-31T21:17:29.159Z,89.51
2022-10-31T21:19:57.431Z,90.99
2022-10-31T21:22:25.193Z,89.62
2022-10-31T21:24:52.880Z,90.16
2022-10-31T21:27:20.547Z,89.27
2022-10-31T21:29:48.334Z,89.74
2022-10-31T21:32:17.024Z,89.63
2022-10-31T21:34:45.018Z,88.95
2022-10-31T21:37:13.178Z,89.96
2022-10-31T21:39:40.781Z,88.56
2022-10-31T21:42:08.498Z,90.25
2022-10-31T21:44:35.915Z,90.90
2022-10-31T21:47:03.585Z,90.08
2022-10-31T21:49:31.004Z,88.25
2022-10-31T21:51:58.749Z,88.13
2022-10-31T21:54:30.513Z,87.50
2022-10-31T21:56:59.194Z,87.83
2022-10-31T21:59:28.070Z,87.29
2022-10-31T22:01:58.524Z,85.30
2022-10-31T22:04:27.883Z,85.34
2022-10-31T22:06:56.339Z,83.92
2022-10-31T22:09:23.888Z,84.73
2022-10-31T22:11:52.194Z,85.34
2022-10-31T22:14:20.606Z,85.21
2022-10-31T22:16:49.192Z,86.58
2022-10-31T22:19:16.812Z,87.53
2022-10-31T22:21:47.479Z,86.23
2022-10-31T22:24:16.257Z,84.83
2022-10-31T22:26:45.161Z,84.89
2022-10-31T22:29:16.155Z,86.16
2022-10-31T22:31:47.654Z,85.41
2022-10-31T22:34:17.619Z,84.51
2022-10-31T22:36:46.482Z,84.65
2022-10-31T22:39:15.196Z,84.47
2022-10-31T22:41:43.251Z,84.97
2022-10-31T22:44:11.481Z,85.44
2022-10-31T22:46:40.178Z,87.78
2022-10-31T22:49:11.111Z,87.15
2022-10-31T22:51:40.357Z,88.60
2022-10-31T22:54:12.551Z,87.85
2022-10-31T22:56:40.614Z,88.04
2022-10-31T22:59:10.927Z,86.54
2022-10-31T23:01:38.888Z,85.37
2022-10-31T23:04:06.803Z,85.49
2022-10-31T23:06:34.741Z,85.74
2022-10-31T23:09:04.618Z,86.22
2022-10-31T23:11:38.432Z,84.65
2022-10-31T23:14:14.907Z,84.52
2022-10-31T23:16:55.063Z,83.80
2022-10-31T23:19:31.667Z,84.04
2022-10-31T23:22:02.138Z,84.94
2022-10-31T23:24:37.748Z,84.47
2022-10-31T23:27:20.748Z,85.01
2022-10-31T23:29:49.431Z,85.04
2022-10-31T23:32:18.563Z,85.17
2022-10-31T23:34:47.424Z,82.98
2022-10-31T23:37:15.534Z,83.40
2022-10-31T23:39:43.803Z,87.77
2022-10-31T23:42:12.073Z,85.14
2022-10-31T23:44:39.970Z,84.40
2022-10-31T23:47:08.017Z,88.06
2022-10-31T23:49:35.783Z,88.74
2022-10-31T23:52:04.489Z,87.01
2022-10-31T23:54:33.296Z,86.27
2022-10-31T23:57:01.862Z,86.97
2022-10-31T23:59:29.686Z,86.38
